81.4°F
Current conditions from King Hill
Updated every 5 minutes
 
  Saturday May 30, 2015

Observations for Westford

Westford

44° 37' 39"N, 73° 02' 29"W, Elevation 850 ft.
Eastern Time

Hourly observations for the last 72 hours

Date Time Temperature (F) Humi-
dity

(%)
Wind
(mph)
Pressure Rain (in)
Air Dew 6 Hour 1 Hr 3 Hr 6 Hr Day
Alt
(in)
Sea
Level

(mb)
Max Min
30 16:00 82.1 69.6 66 SW 6 G 16 29.82 1010.0 0.00
30 15:00 82.5 69.6 65 SW 7 G 21 29.84 1010.6 0.00
30 14:00 81.1 69.1 81.1 69.1 67 SSW 8 G 23 29.87 1011.5 0.00
30 13:00 78.0 67.8 71 SSW 4 G 18 29.90 1012.7 0.00
30 12:00 77.5 67.8 72 S 6 G 19 29.93 1013.6 0.00
30 11:00 75.2 65.2 71 SW 7 G 22 29.95 1014.2 0.00
30 10:00 73.3 65.7 77 S 1 G 16 29.96 1014.5 0.00
30 09:00 70.0 61.7 75 SSW 6 G 15 29.98 1015.1 0.00
30 08:00 69.4 60.8 69.4 63.1 74 SSW 7 G 22 29.98 1015.4 0.00
30 07:00 67.2 58.6 74 SSW 5 G 16 29.99 1015.4 0.00
30 06:00 66.7 58.5 75 SW 4 G 15 29.99 1015.6 0.00
30 05:00 66.3 58.1 75 SSW 4 G 22 30.00 1015.8 0.00
30 04:00 65.0 57.6 77 SSW 2 G 13 30.00 1015.8 0.00
30 03:00 65.3 57.5 76 SW 0 G 12 30.02 1016.6 0.00
30 02:00 63.1 56.8 65.4 59.7 80 SSW 3 G 8 30.04 1017.2 0.00
30 01:00 62.2 56.3 81 SSW 1 G 5 30.05 1017.7 0.00
30 00:00 61.1 55.9 83 Calm 30.07 1018.4 0.00
29 23:00 62.7 55.7 78 SW 0 G 7 30.08 1018.8 0.00
29 22:00 63.2 55.2 75 SSW 0 G 1 30.09 1019.1 0.00
29 21:00 61.7 54.8 78 Calm 30.08 1018.7 0.00
29 20:00 65.4 58.0 77.6 65.4 77 Calm 30.09 1019.0 0.00
29 19:00 73.6 60.7 64 S 0 G 5 30.10 1019.3 0.00
29 18:00 73.9 59.2 60 Calm 30.12 1020.0 0.00
29 17:00 76.7 58.3 53 SSW 0 G 1 30.15 1021.1 0.00
29 16:00 76.7 56.1 49 Calm 30.17 1021.7 0.00
29 15:00 76.7 55.0 47 WSW 2 G 10 30.18 1022.1 0.00
29 14:00 75.5 56.7 75.5 57.7 52 WSW 0 G 6 30.20 1022.8 0.00
29 13:00 72.8 54.7 53 Calm 30.21 1023.1 0.00
29 12:00 71.6 59.2 65 SW 2 G 5 30.22 1023.3 0.00
29 11:00 68.6 59.2 72 WSW 0 G 8 30.24 1023.9 0.00
29 10:00 66.3 61.3 84 Calm 30.25 1024.6 0.00
29 09:00 60.3 59.4 97 Calm 30.28 1025.4 0.00
29 08:00 57.7 57.1 57.8 50.7 98 Calm 30.27 1025.1 0.00
29 07:00 56.9 56.3 98 Calm 30.27 1025.1 0.00
29 06:00 51.6 51.1 98 Calm 30.25 1024.4 0.00
29 05:00 52.8 52.0 97 Calm 30.22 1023.4 0.00
29 04:00 57.3 56.7 98 Calm 30.22 1023.3 0.00
29 03:00 54.6 54.6 100 ESE 0 G 1 30.22 1023.5 0.00
29 02:00 55.5 54.7 60.1 55.5 97 Calm 30.22 1023.3 0.04 0.00
29 01:00 56.8 56.0 97 Calm 30.21 1023.2 0.00
29 00:00 59.0 58.2 97 Calm 30.22 1023.4 0.50
28 23:00 59.3 58.4 97 Calm 30.21 1022.9 0.03 0.04 0.50
28 22:00 59.6 58.5 96 Calm 30.20 1022.6 0.01 0.47
28 21:00 59.5 58.1 95 WNW 0 G 7 30.16 1021.4 0.46
28 20:00 60.0 58.3 68.8 59.9 94 Calm 30.14 1020.5 0.05 0.05 0.46
28 19:00 60.1 58.7 95 WNW 0 G 10 30.11 1019.8 0.02 0.46
28 18:00 60.7 58.7 93 WNW 0 G 1 30.09 1019.0 0.03 0.44
28 17:00 64.4 58.4 81 W 0 G 7 30.07 1018.3 0.41
28 16:00 66.5 59.1 77 WSW 2 G 16 30.05 1017.5 0.41
28 15:00 67.7 59.5 75 W 9 G 20 30.03 1017.0 0.41
28 14:00 65.3 62.0 71.8 63.9 89 WNW 8 G 19 30.01 1016.4 0.37 0.41 0.41
28 13:00 64.8 63.3 95 W 6 G 15 29.98 1015.2 0.35 0.41
28 12:00 70.2 66.5 88 NW 3 G 7 29.96 1014.7 0.02 0.06
28 11:00 70.1 66.1 87 SW 0 G 5 29.98 1015.3 0.04 0.04
28 10:00 68.2 66.7 95 SSW 2 G 11 29.98 1015.4 0.02 0.04
28 09:00 65.7 64.2 95 SSW 3 G 11 29.99 1015.7 0.02 0.02
28 08:00 67.5 64.8 68.0 64.3 91 SSW 5 G 13 29.98 1015.1 0.00
28 07:00 66.4 64.3 93 SSW 4 G 11 29.96 1014.5 0.00
28 06:00 65.4 63.6 94 SSW 2 G 13 29.95 1014.3 0.00
28 05:00 64.7 63.2 95 SSW 3 G 11 29.93 1013.6 0.00
28 04:00 64.5 63.0 95 SSW 3 G 8 29.93 1013.5 0.00
28 03:00 65.4 63.6 94 SSW 3 G 12 29.92 1013.3 0.00
28 02:00 65.7 64.2 70.5 65.4 95 SSW 5 G 15 29.93 1013.5 0.00
28 01:00 65.6 64.1 95 SSW 3 G 9 29.92 1013.1 0.00
28 00:00 66.6 64.8 94 SSW 4 G 13 29.93 1013.5 0.60
27 23:00 67.6 65.8 94 SSW 5 G 10 29.92 1013.4 0.60
27 22:00 68.7 66.6 93 SSW 6 G 12 29.93 1013.5 0.60
27 21:00 69.5 66.1 89 SSW 5 G 13 29.91 1013.0 0.60
27 20:00 70.5 65.4 80.8 69.3 84 SSW 2 G 11 29.90 1012.7 0.56 0.60
27 19:00 71.6 66.2 83 SSW 1 G 6 29.89 1012.3 0.60
27 18:00 74.3 67.7 80 S 2 G 18 29.88 1011.9 0.60
27 17:00 73.6 69.2 86 SW 3 G 12 29.89 1012.2 0.56 0.60

Data generated by WxSolution Version 1.8.7.3, Build 2014.12.21.


 
 
Current Radar Loop:

Copyright © WestfordWeather.net 2007-2015. All rights reserved.